Time;durP1;ratioP1;P1;durP2;ratioP2;P2;SDS_P1;SDS_P2;PMS_P1;PMS_P2;Temp;Humidity;BMP_temperature;BMP_pressure;BME280_temperature;BME280_humidity;BME280_pressure;Samples;Min_cycle;Max_cycle;Signal;HPM_P1;HPM_P2
2023/07/10 00:01:17;;;;;;;0.20;0.10;;;;;;;;;;5039888;28;20037;-82
2023/07/10 00:03:43;;;;;;;0.57;0.43;;;;;;;;;;5019317;28;20046;-82
2023/07/10 00:06:10;;;;;;;0.20;0.10;;;;;;;;;;4990811;28;20048;-83
2023/07/10 00:08:36;;;;;;;0.20;0.20;;;;;;;;;;4996871;28;20038;-82
2023/07/10 00:11:02;;;;;;;0.38;0.30;;;;;;;;;;4982704;28;20726;-82
2023/07/10 00:13:30;;;;;;;0.20;0.10;;;;;;;;;;4978063;28;20564;-81
2023/07/10 00:15:56;;;;;;;0.20;0.17;;;;;;;;;;4996144;28;20042;-85
2023/07/10 00:18:23;;;;;;;0.20;0.20;;;;;;;;;;4997018;28;20062;-83
2023/07/10 00:20:49;;;;;;;0.30;0.30;;;;;;;;;;4982869;28;20187;-87
2023/07/10 00:23:16;;;;;;;0.20;0.10;;;;;;;;;;5004357;28;20033;-81
2023/07/10 00:25:42;;;;;;;0.20;0.10;;;;;;;;;;5000245;28;20049;-81
2023/07/10 00:28:26;;;;;;;0.20;0.10;;;;;;;;;;5014118;28;20048;-82
2023/07/10 00:30:52;;;;;;;0.20;0.10;;;;;;;;;;4978250;28;20029;-81
2023/07/10 00:33:19;;;;;;;0.20;0.13;;;;;;;;;;4975430;28;20420;-82
2023/07/10 00:35:45;;;;;;;0.20;0.10;;;;;;;;;;4999850;28;20406;-81
2023/07/10 00:38:16;;;;;;;0.30;0.20;;;;;;;;;;4999024;28;20038;-83
2023/07/10 00:40:45;;;;;;;0.20;0.20;;;;;;;;;;4982334;28;20044;-82
2023/07/10 00:43:14;;;;;;;0.85;0.45;;;;;;;;;;5008289;28;20046;-83
2023/07/10 00:45:40;;;;;;;0.43;0.40;;;;;;;;;;4997837;28;20120;-82
2023/07/10 00:48:26;;;;;;;0.20;0.10;;;;;;;;;;5014082;28;20124;-84
2023/07/10 00:50:52;;;;;;;0.47;0.40;;;;;;;;;;5001015;28;20111;-81
2023/07/10 00:53:24;;;;;;;0.20;0.20;;;;;;;;;;4997492;28;20033;-81
2023/07/10 00:55:51;;;;;;;0.55;0.25;;;;;;;;;;4986298;28;20522;-83
2023/07/10 00:58:38;;;;;;;0.20;0.20;;;;;;;;;;4983793;28;20655;-81
2023/07/10 01:01:15;;;;;;;0.20;0.20;;;;;;;;;;5001358;28;20041;-82
2023/07/10 01:03:42;;;;;;;0.40;0.20;;;;;;;;;;4995695;28;20042;-80
2023/07/10 01:06:27;;;;;;;0.20;0.20;;;;;;;;;;4999218;28;20041;-81
2023/07/10 01:09:04;;;;;;;0.50;0.47;;;;;;;;;;4991544;28;20088;-81
2023/07/10 01:11:31;;;;;;;0.65;0.55;;;;;;;;;;4985945;28;20046;-81
2023/07/10 01:13:58;;;;;;;0.30;0.28;;;;;;;;;;5006802;28;20049;-81
2023/07/10 01:16:25;;;;;;;0.20;0.10;;;;;;;;;;5017811;28;20509;-80
2023/07/10 01:18:52;;;;;;;0.20;0.10;;;;;;;;;;4993122;28;20128;-81
2023/07/10 01:21:27;;;;;;;0.32;0.32;;;;;;;;;;5000535;28;20229;-82
2023/07/10 01:23:54;;;;;;;0.30;0.20;;;;;;;;;;4999753;28;20041;-82
2023/07/10 01:26:20;;;;;;;0.20;0.10;;;;;;;;;;5014666;28;20100;-82
2023/07/10 01:28:46;;;;;;;0.20;0.17;;;;;;;;;;4978179;28;20038;-81
2023/07/10 01:31:14;;;;;;;0.52;0.20;;;;;;;;;;4995091;28;20105;-82
2023/07/10 01:33:48;;;;;;;0.50;0.43;;;;;;;;;;4978188;28;20038;-82
2023/07/10 01:36:15;;;;;;;0.57;0.40;;;;;;;;;;4978690;28;20078;-82
2023/07/10 01:38:55;;;;;;;0.20;0.17;;;;;;;;;;4976196;28;20038;-82
2023/07/10 01:41:30;;;;;;;0.55;0.20;;;;;;;;;;4981925;28;20069;-83
2023/07/10 01:43:56;;;;;;;0.28;0.28;;;;;;;;;;5011973;28;20038;-81
2023/07/10 01:46:28;;;;;;;0.22;0.17;;;;;;;;;;4971215;28;20466;-80
2023/07/10 01:48:55;;;;;;;0.28;0.28;;;;;;;;;;4980358;28;20053;-81
2023/07/10 01:51:22;;;;;;;0.20;0.10;;;;;;;;;;5002465;28;20049;-83
2023/07/10 01:53:48;;;;;;;0.20;0.17;;;;;;;;;;5008233;28;20037;-81
2023/07/10 01:56:15;;;;;;;0.30;0.30;;;;;;;;;;5008602;28;20068;-83
2023/07/10 01:58:41;;;;;;;0.30;0.30;;;;;;;;;;5000156;28;20037;-81
2023/07/10 02:01:08;;;;;;;0.20;0.10;;;;;;;;;;4989990;28;20077;-80
2023/07/10 02:03:34;;;;;;;0.20;0.10;;;;;;;;;;4986009;28;20105;-80
2023/07/10 02:06:00;;;;;;;0.30;0.30;;;;;;;;;;5001300;28;20041;-80
2023/07/10 02:08:26;;;;;;;0.28;0.28;;;;;;;;;;5000135;28;20034;-79
2023/07/10 02:10:52;;;;;;;0.20;0.13;;;;;;;;;;5001979;28;20049;-86
2023/07/10 02:13:18;;;;;;;0.20;0.20;;;;;;;;;;5000476;28;20403;-81
2023/07/10 02:15:44;;;;;;;0.20;0.15;;;;;;;;;;4988559;28;20053;-85
2023/07/10 02:18:10;;;;;;;4.15;1.45;;;;;;;;;;4977660;28;20034;-81
2023/07/10 02:20:39;;;;;;;0.28;0.28;;;;;;;;;;4996926;28;20046;-82
2023/07/10 02:23:05;;;;;;;0.68;0.30;;;;;;;;;;5003001;28;20753;-83
2023/07/10 02:25:31;;;;;;;0.52;0.45;;;;;;;;;;4978566;28;20045;-84
2023/07/10 02:27:58;;;;;;;1.17;0.20;;;;;;;;;;4996563;28;20513;-83
2023/07/10 02:30:24;;;;;;;0.40;0.38;;;;;;;;;;4978924;28;20041;-83
2023/07/10 02:32:50;;;;;;;0.20;0.20;;;;;;;;;;4986869;28;20059;-85
2023/07/10 02:35:16;;;;;;;0.60;0.57;;;;;;;;;;5001675;28;20069;-82
2023/07/10 02:37:42;;;;;;;0.30;0.13;;;;;;;;;;4982169;28;20087;-80
2023/07/10 02:40:08;;;;;;;0.52;0.50;;;;;;;;;;4987429;28;21575;-82
2023/07/10 02:42:34;;;;;;;0.20;0.17;;;;;;;;;;4999911;28;20060;-81
2023/07/10 02:45:00;;;;;;;0.20;0.20;;;;;;;;;;4984926;28;20038;-82
2023/07/10 02:47:26;;;;;;;0.30;0.20;;;;;;;;;;4983928;28;20075;-82
2023/07/10 02:49:52;;;;;;;0.50;0.50;;;;;;;;;;4982256;28;20056;-82
2023/07/10 02:52:18;;;;;;;0.32;0.32;;;;;;;;;;5001538;28;20132;-83
2023/07/10 02:54:44;;;;;;;0.20;0.10;;;;;;;;;;4984143;28;20049;-83
2023/07/10 02:57:10;;;;;;;0.38;0.28;;;;;;;;;;4984073;28;20042;-83
2023/07/10 02:59:36;;;;;;;0.20;0.20;;;;;;;;;;4995364;28;20056;-82
2023/07/10 03:02:02;;;;;;;0.20;0.20;;;;;;;;;;4995619;28;20192;-83
2023/07/10 03:04:29;;;;;;;0.20;0.10;;;;;;;;;;4994504;28;20041;-83
2023/07/10 03:06:55;;;;;;;0.30;0.30;;;;;;;;;;4981313;28;20659;-82
2023/07/10 03:09:21;;;;;;;0.57;0.22;;;;;;;;;;5000424;28;20049;-81
2023/07/10 03:11:47;;;;;;;0.20;0.20;;;;;;;;;;4994612;28;20042;-81
2023/07/10 03:14:13;;;;;;;1.17;0.73;;;;;;;;;;5004725;28;20133;-82
2023/07/10 03:16:39;;;;;;;0.30;0.30;;;;;;;;;;4989113;28;20569;-82
2023/07/10 03:19:05;;;;;;;0.40;0.30;;;;;;;;;;5004840;28;20077;-83
2023/07/10 03:21:31;;;;;;;0.30;0.30;;;;;;;;;;4986739;28;20064;-82
2023/07/10 03:23:57;;;;;;;0.40;0.30;;;;;;;;;;5001552;28;20536;-81
2023/07/10 03:26:23;;;;;;;0.20;0.20;;;;;;;;;;5001439;28;20442;-79
2023/07/10 03:29:01;;;;;;;1.17;1.02;;;;;;;;;;4997004;28;20069;-81
2023/07/10 03:31:27;;;;;;;0.20;0.20;;;;;;;;;;4999631;28;20088;-81
2023/07/10 03:33:53;;;;;;;0.20;0.10;;;;;;;;;;4999889;28;20042;-82
2023/07/10 03:36:19;;;;;;;0.52;0.35;;;;;;;;;;5000142;28;20046;-82
2023/07/10 03:38:45;;;;;;;0.40;0.40;;;;;;;;;;4999460;28;20046;-82
2023/07/10 03:41:11;;;;;;;0.35;0.35;;;;;;;;;;5001556;28;20052;-81
2023/07/10 03:43:37;;;;;;;0.20;0.10;;;;;;;;;;4978881;28;20038;-84
2023/07/10 03:46:03;;;;;;;1.13;0.60;;;;;;;;;;4976425;28;21400;-83
2023/07/10 03:48:29;;;;;;;0.20;0.20;;;;;;;;;;5008966;28;20726;-83
2023/07/10 03:50:56;;;;;;;0.20;0.17;;;;;;;;;;4999370;28;20121;-81
2023/07/10 03:53:22;;;;;;;0.40;0.20;;;;;;;;;;5019043;28;20132;-81
2023/07/10 03:55:49;;;;;;;0.20;0.20;;;;;;;;;;5005880;28;20826;-81
2023/07/10 03:58:21;;;;;;;0.47;0.40;;;;;;;;;;4988359;28;20037;-81
2023/07/10 04:00:47;;;;;;;;;;;;;;;;;;4995625;28;20073;-81
2023/07/10 04:03:13;;;;;;;0.43;0.43;;;;;;;;;;5001551;28;19963;-82
2023/07/10 04:05:39;;;;;;;1.00;0.65;;;;;;;;;;5002988;28;20050;-81
2023/07/10 04:08:05;;;;;;;0.47;0.40;;;;;;;;;;5020061;28;20112;-79
2023/07/10 04:10:31;;;;;;;0.30;0.20;;;;;;;;;;4999801;28;20061;-79
2023/07/10 04:12:57;;;;;;;0.30;0.30;;;;;;;;;;4985637;28;20046;-80
2023/07/10 04:15:23;;;;;;;0.35;0.28;;;;;;;;;;5017581;28;20116;-79
2023/07/10 04:17:49;;;;;;;1.42;0.80;;;;;;;;;;5000179;28;20056;-80
2023/07/10 04:20:15;;;;;;;0.20;0.20;;;;;;;;;;4994193;28;20053;-81
2023/07/10 04:22:41;;;;;;;0.20;0.20;;;;;;;;;;4993121;28;20057;-81
2023/07/10 04:25:10;;;;;;;0.20;0.10;;;;;;;;;;4985608;28;20045;-81
2023/07/10 04:27:36;;;;;;;0.82;0.47;;;;;;;;;;5003199;28;20406;-81
2023/07/10 04:30:02;;;;;;;0.43;0.35;;;;;;;;;;4997885;28;20500;-80
2023/07/10 04:32:28;;;;;;;0.28;0.28;;;;;;;;;;4979571;28;20469;-81
2023/07/10 04:34:54;;;;;;;0.22;0.20;;;;;;;;;;5012730;28;20042;-81
2023/07/10 04:37:20;;;;;;;0.35;0.20;;;;;;;;;;4979943;28;20071;-80
2023/07/10 04:39:46;;;;;;;0.50;0.40;;;;;;;;;;4996121;28;20041;-79
2023/07/10 04:42:12;;;;;;;0.57;0.52;;;;;;;;;;4994188;28;20049;-80
2023/07/10 04:44:38;;;;;;;0.40;0.40;;;;;;;;;;4980062;28;20049;-80
2023/07/10 04:47:04;;;;;;;0.20;0.15;;;;;;;;;;5016557;28;20495;-80
2023/07/10 04:49:30;;;;;;;0.63;0.30;;;;;;;;;;5014102;28;20037;-80
2023/07/10 04:52:03;;;;;;;0.20;0.20;;;;;;;;;;5012584;28;20057;-80
2023/07/10 04:54:30;;;;;;;0.50;0.30;;;;;;;;;;4997321;28;20131;-81
2023/07/10 04:56:56;;;;;;;1.58;0.30;;;;;;;;;;5020688;28;20053;-80
2023/07/10 04:59:25;;;;;;;0.98;0.57;;;;;;;;;;5021726;28;20064;-79
2023/07/10 05:01:51;;;;;;;0.20;0.10;;;;;;;;;;4999324;28;21443;-79
2023/07/10 05:04:17;;;;;;;0.70;0.70;;;;;;;;;;4992844;28;20042;-80
2023/07/10 05:06:43;;;;;;;0.20;0.10;;;;;;;;;;4994135;28;20048;-82
2023/07/10 05:09:09;;;;;;;0.30;0.30;;;;;;;;;;5000674;28;20137;-81
2023/07/10 05:11:35;;;;;;;0.20;0.20;;;;;;;;;;4999250;28;20132;-80
2023/07/10 05:14:01;;;;;;;0.40;0.40;;;;;;;;;;4984925;28;20406;-80
2023/07/10 05:16:28;;;;;;;0.20;0.20;;;;;;;;;;4988060;28;20034;-82
2023/07/10 05:18:54;;;;;;;0.30;0.10;;;;;;;;;;5021359;28;20057;-80
2023/07/10 05:21:20;;;;;;;0.35;0.32;;;;;;;;;;5000060;28;20050;-80
2023/07/10 05:23:46;;;;;;;0.30;0.25;;;;;;;;;;4984347;28;20038;-80
2023/07/10 05:26:14;;;;;;;0.32;0.32;;;;;;;;;;4990149;28;20038;-80
2023/07/10 05:28:41;;;;;;;0.35;0.20;;;;;;;;;;4996357;28;20038;-81
2023/07/10 05:31:08;;;;;;;0.45;0.40;;;;;;;;;;5008918;28;20038;-79
2023/07/10 05:33:35;;;;;;;0.20;0.10;;;;;;;;;;5009589;28;20037;-80
2023/07/10 05:36:02;;;;;;;0.60;0.45;;;;;;;;;;4985353;28;20086;-79
2023/07/10 05:38:30;;;;;;;0.20;0.20;;;;;;;;;;5004485;28;20077;-79
2023/07/10 05:40:56;;;;;;;1.60;0.22;;;;;;;;;;5021873;28;20046;-79
2023/07/10 05:43:22;;;;;;;0.22;0.13;;;;;;;;;;4987830;28;20042;-79
2023/07/10 05:45:49;;;;;;;0.35;0.35;;;;;;;;;;4986597;28;20547;-79
2023/07/10 05:48:15;;;;;;;0.30;0.20;;;;;;;;;;4999456;28;20200;-80
2023/07/10 05:50:43;;;;;;;0.60;0.50;;;;;;;;;;4983891;28;20053;-79
2023/07/10 05:53:09;;;;;;;0.20;0.10;;;;;;;;;;4999848;28;20081;-79
2023/07/10 05:55:35;;;;;;;0.50;0.30;;;;;;;;;;5019697;22;20044;-85
2023/07/10 05:58:01;;;;;;;1.05;0.30;;;;;;;;;;5037329;28;20045;-87
2023/07/10 06:00:27;;;;;;;0.22;0.22;;;;;;;;;;5036580;28;20040;-86
2023/07/10 06:02:53;;;;;;;0.30;0.30;;;;;;;;;;5034855;28;20406;-85
2023/07/10 06:05:19;;;;;;;0.52;0.40;;;;;;;;;;5036614;28;20044;-86
2023/07/10 06:07:45;;;;;;;0.22;0.20;;;;;;;;;;5017008;28;20037;-86
2023/07/10 06:10:11;;;;;;;0.20;0.10;;;;;;;;;;5033313;28;20036;-86
2023/07/10 06:12:37;;;;;;;0.20;0.20;;;;;;;;;;5014818;28;20405;-84
2023/07/10 06:15:03;;;;;;;0.25;0.20;;;;;;;;;;5019753;28;20037;-85
2023/07/10 06:17:29;;;;;;;0.20;0.10;;;;;;;;;;5022931;28;20128;-85
2023/07/10 06:19:55;;;;;;;0.20;0.10;;;;;;;;;;5024069;28;20045;-85
2023/07/10 06:22:22;;;;;;;0.25;0.15;;;;;;;;;;5013801;28;20041;-85
2023/07/10 06:24:48;;;;;;;0.25;0.25;;;;;;;;;;5030307;28;20029;-86
2023/07/10 06:27:17;;;;;;;0.30;0.20;;;;;;;;;;5019751;28;20563;-84
2023/07/10 06:29:43;;;;;;;0.30;0.25;;;;;;;;;;5049042;28;20076;-85
2023/07/10 06:32:19;;;;;;;0.20;0.10;;;;;;;;;;5018819;28;20040;-85
2023/07/10 06:34:48;;;;;;;0.20;0.10;;;;;;;;;;5044050;28;20037;-85
2023/07/10 06:37:14;;;;;;;0.20;0.10;;;;;;;;;;5017801;28;20037;-85
2023/07/10 06:40:14;;;;;;;0.28;0.17;;;;;;;;;;5018862;28;20037;-85
2023/07/10 06:42:50;;;;;;;0.22;0.13;;;;;;;;;;5032544;28;20541;-85
2023/07/10 06:45:30;;;;;;;0.20;0.10;;;;;;;;;;5031080;28;20037;-86
2023/07/10 06:47:59;;;;;;;0.38;0.20;;;;;;;;;;5022141;28;20044;-86
2023/07/10 06:50:25;;;;;;;0.30;0.10;;;;;;;;;;5050571;28;20517;-85
2023/07/10 06:52:51;;;;;;;0.40;0.10;;;;;;;;;;5029544;28;20382;-83
2023/07/10 06:55:22;;;;;;;0.30;0.17;;;;;;;;;;5032597;28;20564;-85
2023/07/10 06:57:54;;;;;;;4.43;0.43;;;;;;;;;;5036422;28;20083;-86
2023/07/10 07:00:40;;;;;;;0.20;0.10;;;;;;;;;;5021670;28;20041;-83
2023/07/10 07:03:26;;;;;;;0.20;0.20;;;;;;;;;;5046854;28;20048;-86
2023/07/10 07:06:07;;;;;;;0.20;0.00;;;;;;;;;;5030521;28;20454;-87
2023/07/10 07:08:39;;;;;;;0.20;0.10;;;;;;;;;;5039393;28;20248;-85
2023/07/10 07:11:16;;;;;;;0.20;0.10;;;;;;;;;;5014972;28;20116;-86
2023/07/10 07:13:52;;;;;;;0.52;0.30;;;;;;;;;;5031273;28;20052;-84
2023/07/10 07:16:18;;;;;;;0.20;0.10;;;;;;;;;;5028891;28;20061;-85
2023/07/10 07:18:44;;;;;;;0.20;0.10;;;;;;;;;;5031151;28;20048;-84
2023/07/10 07:21:13;;;;;;;0.20;0.20;;;;;;;;;;5051671;28;20033;-84
2023/07/10 07:23:39;;;;;;;0.20;0.20;;;;;;;;;;5035967;28;20450;-83
2023/07/10 07:26:05;;;;;;;0.20;0.10;;;;;;;;;;5016448;28;20075;-87
2023/07/10 07:28:31;;;;;;;0.20;0.10;;;;;;;;;;5031509;28;20434;-85
2023/07/10 07:31:01;;;;;;;0.20;0.10;;;;;;;;;;5018821;28;20044;-87
2023/07/10 07:33:27;;;;;;;0.20;0.00;;;;;;;;;;5030525;28;20045;-86
2023/07/10 07:35:53;;;;;;;0.20;0.10;;;;;;;;;;5009282;28;20505;-86
2023/07/10 07:38:22;;;;;;;0.20;0.10;;;;;;;;;;5029780;28;20036;-84
2023/07/10 07:40:48;;;;;;;0.20;0.10;;;;;;;;;;5033444;28;20071;-86
2023/07/10 07:43:15;;;;;;;0.20;0.10;;;;;;;;;;5019278;28;20045;-85
2023/07/10 07:45:49;;;;;;;0.20;0.10;;;;;;;;;;5021376;28;20033;-87
2023/07/10 07:48:15;;;;;;;0.20;0.10;;;;;;;;;;5027978;28;20467;-88
2023/07/10 07:50:49;;;;;;;0.30;0.30;;;;;;;;;;5035243;28;20609;-87
2023/07/10 07:53:17;;;;;;;0.20;0.10;;;;;;;;;;5020725;28;20048;-87
2023/07/10 07:55:51;;;;;;;0.40;0.20;;;;;;;;;;5021436;28;20049;-89
2023/07/10 07:58:17;;;;;;;0.20;0.10;;;;;;;;;;5034541;28;20397;-84
2023/07/10 08:00:50;;;;;;;0.22;0.15;;;;;;;;;;5023386;28;20061;-85
2023/07/10 08:03:22;;;;;;;0.20;0.10;;;;;;;;;;5019605;28;20615;-86
2023/07/10 08:05:48;;;;;;;0.35;0.20;;;;;;;;;;5055212;28;20033;-85
2023/07/10 08:08:14;;;;;;;0.20;0.10;;;;;;;;;;5043013;28;20520;-83
2023/07/10 08:10:42;;;;;;;0.20;0.10;;;;;;;;;;5026250;28;20041;-85
2023/07/10 08:13:09;;;;;;;0.20;0.10;;;;;;;;;;5015575;28;20577;-86
2023/07/10 08:15:35;;;;;;;0.20;0.10;;;;;;;;;;5012645;28;20052;-84
2023/07/10 08:18:01;;;;;;;0.20;0.10;;;;;;;;;;5039340;28;20043;-85
2023/07/10 08:20:30;;;;;;;0.20;0.10;;;;;;;;;;5038135;28;20038;-84
2023/07/10 08:22:56;;;;;;;0.20;0.10;;;;;;;;;;5041540;28;20064;-85
2023/07/10 08:25:22;;;;;;;0.20;0.10;;;;;;;;;;5038152;28;20051;-85
2023/07/10 08:27:51;;;;;;;0.30;0.10;;;;;;;;;;5040690;28;20547;-86
2023/07/10 08:30:17;;;;;;;2.95;0.77;;;;;;;;;;5023641;28;20502;-87
2023/07/10 08:32:57;;;;;;;0.20;0.10;;;;;;;;;;5039115;28;20053;-85
2023/07/10 08:35:26;;;;;;;0.20;0.10;;;;;;;;;;5028993;28;20048;-86
2023/07/10 08:37:54;;;;;;;0.20;0.10;;;;;;;;;;5037535;28;20232;-86
2023/07/10 08:40:37;;;;;;;;;;;;;;;;;;;;;
2023/07/10 08:43:17;;;;;;;0.20;0.10;;;;;;;;;;5053639;28;20056;-85
2023/07/10 08:45:45;;;;;;;0.20;0.10;;;;;;;;;;5030765;28;20048;-84
2023/07/10 08:48:29;;;;;;;0.20;0.10;;;;;;;;;;5035088;28;20048;-86
2023/07/10 08:51:03;;;;;;;0.20;0.10;;;;;;;;;;5024145;28;20052;-85
2023/07/10 08:53:32;;;;;;;0.20;0.10;;;;;;;;;;5040699;28;20048;-84
2023/07/10 08:56:03;;;;;;;0.20;0.10;;;;;;;;;;5032659;28;20064;-85
2023/07/10 08:58:41;;;;;;;0.20;0.10;;;;;;;;;;5028631;28;20068;-83
2023/07/10 09:01:13;;;;;;;0.20;0.10;;;;;;;;;;5055588;28;20046;-86
2023/07/10 09:03:59;;;;;;;0.20;0.10;;;;;;;;;;5037425;28;20425;-87
2023/07/10 09:06:35;;;;;;;0.30;0.30;;;;;;;;;;5035926;28;20037;-84
2023/07/10 09:09:01;;;;;;;0.20;0.10;;;;;;;;;;5026852;28;20053;-84
2023/07/10 09:11:43;;;;;;;0.20;0.10;;;;;;;;;;5030475;28;20189;-85
2023/07/10 09:14:23;;;;;;;0.20;0.10;;;;;;;;;;5021817;28;20033;-84
2023/07/10 09:16:51;;;;;;;;;;;;;;;;;;5043985;28;20038;-87
2023/07/10 09:19:19;;;;;;;0.20;0.10;;;;;;;;;;5043197;28;19917;-84
2023/07/10 09:21:55;;;;;;;0.20;0.10;;;;;;;;;;5031764;28;20052;-87
2023/07/10 09:24:24;;;;;;;0.20;0.10;;;;;;;;;;5024795;28;20116;-86
2023/07/10 09:26:51;;;;;;;0.20;0.10;;;;;;;;;;5019568;28;20037;-84
2023/07/10 09:29:30;;;;;;;0.20;0.10;;;;;;;;;;5025486;28;20386;-82
2023/07/10 09:31:56;;;;;;;0.20;0.10;;;;;;;;;;5047138;28;20172;-84
2023/07/10 09:34:30;;;;;;;0.20;0.10;;;;;;;;;;5040688;28;20037;-82
2023/07/10 09:37:00;;;;;;;0.20;0.10;;;;;;;;;;5027214;28;20510;-85
2023/07/10 09:39:30;;;;;;;0.20;0.10;;;;;;;;;;5031074;28;20037;-85
2023/07/10 09:42:00;;;;;;;0.20;0.10;;;;;;;;;;5035338;28;20060;-85
2023/07/10 09:44:33;;;;;;;0.20;0.10;;;;;;;;;;5028507;28;20041;-84
2023/07/10 09:47:13;;;;;;;0.20;0.10;;;;;;;;;;5038671;28;20041;-84
2023/07/10 09:49:46;;;;;;;0.22;0.22;;;;;;;;;;5022610;28;20045;-85
2023/07/10 09:52:38;;;;;;;1.02;0.38;;;;;;;;;;5027680;28;20041;-86
2023/07/10 09:55:07;;;;;;;0.20;0.10;;;;;;;;;;5027160;28;20041;-85
2023/07/10 09:57:50;;;;;;;0.20;0.10;;;;;;;;;;5041783;28;20052;-83
2023/07/10 10:00:16;;;;;;;;;;;;;;;;;;5026240;28;20083;-85
2023/07/10 10:02:44;;;;;;;0.20;0.10;;;;;;;;;;5020790;28;19921;-86
2023/07/10 10:05:10;;;;;;;0.20;0.10;;;;;;;;;;5054607;28;20033;-87
2023/07/10 10:07:47;;;;;;;0.20;0.10;;;;;;;;;;5036523;28;20033;-86
2023/07/10 10:10:14;;;;;;;0.20;0.10;;;;;;;;;;5026534;28;20120;-84
2023/07/10 10:12:40;;;;;;;0.20;0.10;;;;;;;;;;5025825;28;20052;-85
2023/07/10 10:15:12;;;;;;;0.20;0.10;;;;;;;;;;5039095;28;20088;-85
2023/07/10 10:18:01;;;;;;;0.30;0.22;;;;;;;;;;5024797;28;20037;-85
2023/07/10 10:21:02;;;;;;;0.25;0.10;;;;;;;;;;5038720;28;20045;-86
2023/07/10 10:27:05;;;;;;;0.20;0.10;;;;;;;;;;5036142;28;19972;-84
2023/07/10 10:29:46;;;;;;;0.20;0.10;;;;;;;;;;5035907;28;20546;-87
2023/07/10 10:32:18;;;;;;;0.20;0.10;;;;;;;;;;5023758;28;20043;-86
2023/07/10 10:34:56;;;;;;;0.30;0.13;;;;;;;;;;5036595;28;20124;-85
2023/07/10 10:37:42;;;;;;;0.20;0.10;;;;;;;;;;5052190;28;20056;-87
2023/07/10 10:40:33;;;;;;;0.30;0.30;;;;;;;;;;5038632;28;20045;-87
2023/07/10 10:43:27;;;;;;;0.20;0.10;;;;;;;;;;5037140;28;20060;-84
2023/07/10 10:46:12;;;;;;;0.20;0.10;;;;;;;;;;5023128;28;20142;-85
2023/07/10 10:48:54;;;;;;;0.22;0.13;;;;;;;;;;5031974;28;20044;-84
2023/07/10 10:51:33;;;;;;;0.20;0.20;;;;;;;;;;5032962;28;20041;-87
2023/07/10 10:53:59;;;;;;;0.20;0.10;;;;;;;;;;5021274;28;20171;-84
2023/07/10 10:56:32;;;;;;;0.20;0.10;;;;;;;;;;5027938;28;20080;-85
2023/07/10 10:58:58;;;;;;;;;;;;;;;;;;5029139;28;20485;-84
2023/07/10 11:01:38;;;;;;;0.20;0.20;;;;;;;;;;5029443;28;19932;-87
2023/07/10 11:07:38;;;;;;;0.20;0.17;;;;;;;;;;4978285;28;20053;-86
2023/07/10 11:10:11;;;;;;;0.20;0.05;;;;;;;;;;4976228;28;20125;-83
2023/07/10 11:12:51;;;;;;;0.20;0.10;;;;;;;;;;5030160;28;20045;-85
2023/07/10 11:15:21;;;;;;;0.20;0.10;;;;;;;;;;5015966;28;20063;-83
2023/07/10 11:18:00;;;;;;;0.20;0.10;;;;;;;;;;5023551;28;20082;-82
2023/07/10 11:20:27;;;;;;;0.20;0.10;;;;;;;;;;5024783;28;20042;-86
2023/07/10 11:23:18;;;;;;;0.20;0.10;;;;;;;;;;5026206;28;20044;-84
2023/07/10 11:25:44;;;;;;;0.22;0.20;;;;;;;;;;5031763;28;20045;-83
2023/07/10 11:28:26;;;;;;;0.20;0.10;;;;;;;;;;5026842;28;20033;-84
2023/07/10 11:31:12;;;;;;;0.20;0.10;;;;;;;;;;5022850;28;20047;-84
2023/07/10 11:33:52;;;;;;;0.20;0.10;;;;;;;;;;5022707;28;20037;-84
2023/07/10 11:36:30;;;;;;;0.20;0.10;;;;;;;;;;5037616;28;20521;-86
2023/07/10 11:39:43;;;;;;;0.20;0.20;;;;;;;;;;5033864;28;20036;-85
2023/07/10 11:42:16;;;;;;;0.20;0.10;;;;;;;;;;4963452;28;20062;-84
2023/07/10 11:45:00;;;;;;;0.20;0.10;;;;;;;;;;4957614;28;20077;-85
2023/07/10 11:47:45;;;;;;;;;;;;;;;;;;;;;
2023/07/10 11:50:35;;;;;;;0.20;0.10;;;;;;;;;;5032429;28;20482;-88
2023/07/10 11:53:20;;;;;;;0.20;0.10;;;;;;;;;;5013234;28;20049;-87
2023/07/10 11:58:24;;;;;;;0.20;0.10;;;;;;;;;;5029491;28;20538;-87
2023/07/10 12:00:52;;;;;;;0.20;0.10;;;;;;;;;;5004312;28;20037;-82
2023/07/10 12:03:18;;;;;;;0.30;0.30;;;;;;;;;;5005042;28;20072;-84
2023/07/10 12:05:46;;;;;;;0.20;0.10;;;;;;;;;;5004701;28;22215;-85
2023/07/10 12:08:13;;;;;;;0.30;0.10;;;;;;;;;;5041085;28;20465;-84
2023/07/10 12:10:39;;;;;;;0.20;0.10;;;;;;;;;;5012666;28;20037;-85
2023/07/10 12:13:21;;;;;;;0.20;0.10;;;;;;;;;;5012917;28;20060;-84
2023/07/10 12:15:48;;;;;;;0.63;0.33;;;;;;;;;;5011725;28;20458;-83
2023/07/10 12:18:16;;;;;;;0.20;0.10;;;;;;;;;;5033614;28;20040;-80
2023/07/10 12:20:42;;;;;;;0.20;0.10;;;;;;;;;;5030646;28;20049;-80
2023/07/10 12:23:13;;;;;;;0.20;0.10;;;;;;;;;;5016814;28;20033;-83
2023/07/10 12:25:46;;;;;;;0.20;0.10;;;;;;;;;;5013418;28;20124;-84
2023/07/10 12:28:13;;;;;;;0.20;0.00;;;;;;;;;;5002721;28;20041;-83
2023/07/10 12:30:39;;;;;;;0.20;0.08;;;;;;;;;;5021170;28;20046;-83
2023/07/10 12:33:25;;;;;;;0.20;0.10;;;;;;;;;;5024198;28;20522;-81
2023/07/10 12:35:51;;;;;;;0.20;0.10;;;;;;;;;;5022571;28;20828;-83
2023/07/10 12:38:18;;;;;;;0.57;0.28;;;;;;;;;;5034857;28;20590;-84
2023/07/10 12:40:44;;;;;;;1.08;0.30;;;;;;;;;;5024094;28;20059;-82
2023/07/10 12:43:21;;;;;;;0.32;0.30;;;;;;;;;;5014534;28;20444;-83
2023/07/10 12:45:55;;;;;;;0.20;0.10;;;;;;;;;;5017775;28;20061;-82
2023/07/10 12:48:21;;;;;;;0.20;0.10;;;;;;;;;;5015969;28;20654;-84
2023/07/10 12:50:50;;;;;;;0.20;0.20;;;;;;;;;;5022931;28;20497;-82
2023/07/10 12:53:19;;;;;;;0.20;0.10;;;;;;;;;;5043830;28;20041;-82
2023/07/10 12:55:46;;;;;;;0.20;0.10;;;;;;;;;;5037056;28;20456;-85
2023/07/10 12:58:16;;;;;;;0.20;0.10;;;;;;;;;;5040788;28;20251;-80
2023/07/10 13:00:47;;;;;;;0.20;0.10;;;;;;;;;;5015404;28;20048;-86
2023/07/10 13:03:25;;;;;;;1.00;0.75;;;;;;;;;;5037376;28;20413;-81
2023/07/10 13:05:53;;;;;;;0.40;0.40;;;;;;;;;;5026498;28;20084;-81
2023/07/10 13:08:19;;;;;;;0.20;0.10;;;;;;;;;;5029924;28;20493;-83
2023/07/10 13:10:46;;;;;;;0.20;0.10;;;;;;;;;;5018618;28;20037;-81
2023/07/10 13:13:19;;;;;;;0.20;0.10;;;;;;;;;;5035088;28;20049;-83
2023/07/10 13:15:46;;;;;;;0.20;0.10;;;;;;;;;;5032243;28;20128;-83
2023/07/10 13:18:25;;;;;;;0.20;0.10;;;;;;;;;;5045772;28;20898;-82
2023/07/10 13:20:52;;;;;;;0.30;0.17;;;;;;;;;;5019500;28;20045;-83
2023/07/10 13:23:18;;;;;;;0.20;0.10;;;;;;;;;;5026909;28;20033;-81
2023/07/10 13:25:44;;;;;;;0.20;0.00;;;;;;;;;;5017145;28;20528;-82
2023/07/10 13:28:18;;;;;;;0.20;0.10;;;;;;;;;;5026246;28;20045;-81
2023/07/10 13:30:45;;;;;;;0.20;0.10;;;;;;;;;;5039554;28;20044;-83
2023/07/10 13:33:15;;;;;;;0.20;0.10;;;;;;;;;;5018590;28;20037;-84
2023/07/10 13:35:41;;;;;;;0.20;0.20;;;;;;;;;;5034220;28;20045;-83
2023/07/10 13:38:12;;;;;;;0.20;0.10;;;;;;;;;;5022360;28;20071;-83
2023/07/10 13:40:38;;;;;;;0.20;0.10;;;;;;;;;;5019931;28;20044;-83
2023/07/10 13:43:14;;;;;;;0.20;0.05;;;;;;;;;;5017656;28;20056;-82
2023/07/10 13:45:40;;;;;;;0.20;0.10;;;;;;;;;;5027487;28;20061;-85
2023/07/10 13:48:15;;;;;;;0.20;0.10;;;;;;;;;;5022588;28;20048;-86
2023/07/10 13:50:41;;;;;;;0.20;0.10;;;;;;;;;;5024342;28;20534;-81
2023/07/10 13:53:10;;;;;;;0.20;0.10;;;;;;;;;;5020936;28;20114;-81
2023/07/10 13:55:37;;;;;;;0.20;0.10;;;;;;;;;;5011568;28;20528;-85
2023/07/10 13:58:05;;;;;;;0.20;0.10;;;;;;;;;;5020775;28;20044;-81
2023/07/10 14:00:31;;;;;;;0.20;0.10;;;;;;;;;;5014600;28;20045;-82
2023/07/10 14:02:58;;;;;;;0.20;0.10;;;;;;;;;;5016578;28;20041;-83
2023/07/10 14:05:24;;;;;;;0.20;0.10;;;;;;;;;;5011026;28;20041;-82
2023/07/10 14:07:50;;;;;;;0.20;0.10;;;;;;;;;;5021197;28;20045;-84
2023/07/10 14:10:17;;;;;;;0.20;0.10;;;;;;;;;;5024031;28;20037;-82
2023/07/10 14:12:44;;;;;;;0.20;0.10;;;;;;;;;;5014181;28;20083;-82
2023/07/10 14:15:14;;;;;;;0.30;0.30;;;;;;;;;;5028484;28;20174;-81
2023/07/10 14:17:41;;;;;;;0.20;0.10;;;;;;;;;;5019734;28;20593;-80
2023/07/10 14:20:14;;;;;;;0.20;0.10;;;;;;;;;;5015352;28;20114;-81
2023/07/10 14:22:42;;;;;;;0.20;0.10;;;;;;;;;;5015740;28;20044;-82
2023/07/10 14:25:08;;;;;;;0.20;0.00;;;;;;;;;;5025920;28;20067;-82
2023/07/10 14:27:35;;;;;;;0.20;0.10;;;;;;;;;;5044180;28;20065;-81
2023/07/10 14:30:01;;;;;;;0.20;0.10;;;;;;;;;;5041240;28;20068;-82
2023/07/10 14:32:27;;;;;;;0.20;0.10;;;;;;;;;;5022867;28;20040;-83
2023/07/10 14:34:56;;;;;;;0.20;0.10;;;;;;;;;;5021111;28;20047;-85
2023/07/10 14:37:27;;;;;;;0.20;0.10;;;;;;;;;;5023148;28;20119;-81
2023/07/10 14:39:53;;;;;;;0.20;0.10;;;;;;;;;;5038897;28;20494;-82
2023/07/10 14:42:21;;;;;;;0.20;0.10;;;;;;;;;;5024469;28;20037;-82
2023/07/10 14:44:47;;;;;;;0.20;0.10;;;;;;;;;;5045116;28;20122;-81
2023/07/10 14:47:19;;;;;;;0.20;0.10;;;;;;;;;;5017216;28;20040;-82
2023/07/10 14:49:48;;;;;;;0.20;0.10;;;;;;;;;;5023199;28;20482;-83
2023/07/10 14:52:22;;;;;;;0.20;0.10;;;;;;;;;;5023884;28;20049;-83
2023/07/10 14:54:51;;;;;;;1.05;1.02;;;;;;;;;;5010978;28;20063;-82
2023/07/10 14:57:31;;;;;;;0.20;0.10;;;;;;;;;;5039353;28;20042;-83
2023/07/10 14:59:57;;;;;;;0.20;0.10;;;;;;;;;;5018547;28;20037;-81
2023/07/10 15:02:24;;;;;;;0.20;0.10;;;;;;;;;;5032810;28;20041;-84
2023/07/10 15:04:50;;;;;;;0.20;0.10;;;;;;;;;;5029269;28;20041;-84
2023/07/10 15:07:17;;;;;;;0.95;0.68;;;;;;;;;;5018602;28;20485;-82
2023/07/10 15:09:43;;;;;;;0.32;0.30;;;;;;;;;;5030704;28;20029;-80
2023/07/10 15:12:17;;;;;;;0.20;0.10;;;;;;;;;;5030565;28;20075;-84